Time;durP1;ratioP1;P1;durP2;ratioP2;P2;SDS_P1;SDS_P2;PMS_P1;PMS_P2;Temp;Humidity;BMP_temperature;BMP_pressure;BME280_temperature;BME280_humidity;BME280_pressure;Samples;Min_cycle;Max_cycle;Signal;HPM_P1;HPM_P2
2022/10/12 00:00:35;;;;;;;7.78;3.38;;;5.50;99.90;;;;;;5093874;28;20088;-81
2022/10/12 00:03:01;;;;;;;6.97;2.70;;;4.60;99.90;;;;;;5076472;28;20127;-81
2022/10/12 00:05:27;;;;;;;7.93;3.35;;;5.50;99.90;;;;;;5093597;28;20075;-82
2022/10/12 00:07:52;;;;;;;6.63;3.25;;;6.30;99.90;;;;;;5076618;28;20092;-81
2022/10/12 00:10:18;;;;;;;7.90;3.60;;;6.20;99.90;;;;;;5059995;28;20119;-81
2022/10/12 00:12:44;;;;;;;7.97;3.42;;;5.50;99.90;;;;;;5062155;22;20056;-80
2022/10/12 00:15:10;;;;;;;10.73;3.60;;;5.50;99.90;;;;;;5017393;28;20064;-81
2022/10/12 00:17:36;;;;;;;5.90;2.70;;;5.80;99.90;;;;;;5052333;28;20037;-81
2022/10/12 00:20:04;;;;;;;8.18;2.47;;;6.20;99.90;;;;;;5052872;28;20048;-80
2022/10/12 00:22:30;;;;;;;7.20;3.03;;;5.50;99.90;;;;;;5035793;28;20056;-81
2022/10/12 00:24:55;;;;;;;4.60;2.40;;;5.50;99.90;;;;;;5035858;28;20041;-81
2022/10/12 00:27:21;;;;;;;5.72;2.65;;;5.40;99.90;;;;;;5046791;28;20072;-80
2022/10/12 00:29:47;;;;;;;3.47;2.03;;;5.40;99.90;;;;;;5035863;28;20494;-81
2022/10/12 00:32:13;;;;;;;4.13;2.25;;;5.60;99.90;;;;;;5052237;28;20037;-81
2022/10/12 00:34:38;;;;;;;5.03;2.53;;;5.40;99.90;;;;;;5052318;28;20044;-81
2022/10/12 00:37:04;;;;;;;4.07;2.38;;;5.40;99.90;;;;;;5050555;28;20048;-80
2022/10/12 00:39:30;;;;;;;5.32;2.75;;;5.60;99.90;;;;;;5052278;28;20102;-81
2022/10/12 00:41:55;;;;;;;3.97;2.30;;;5.30;99.90;;;;;;5051954;28;20047;-80
2022/10/12 00:44:43;;;;;;;3.25;1.80;;;5.80;99.90;;;;;;5051045;28;20911;-83
2022/10/12 00:47:17;;;;;;;5.63;2.75;;;5.30;99.90;;;;;;5035461;28;20072;-84
2022/10/12 00:49:50;;;;;;;4.60;2.28;;;5.30;99.90;;;;;;5052385;28;20091;-84
2022/10/12 00:52:20;;;;;;;4.80;2.10;;;5.30;99.90;;;;;;5041003;28;20044;-84
2022/10/12 00:54:49;;;;;;;4.43;2.00;;;5.30;99.90;;;;;;5052681;28;20037;-83
2022/10/12 00:57:16;;;;;;;3.85;2.15;;;5.30;99.90;;;;;;5051903;28;20037;-83
2022/10/12 00:59:53;;;;;;;3.15;1.80;;;5.30;99.90;;;;;;5032633;28;20041;-81
2022/10/12 01:02:20;;;;;;;2.40;1.50;;;5.30;99.90;;;;;;5032427;28;20216;-81
2022/10/12 01:04:46;;;;;;;5.82;2.05;;;5.30;99.90;;;;;;5048796;28;20068;-81
2022/10/12 01:07:12;;;;;;;4.47;1.73;;;5.30;99.90;;;;;;5048483;28;20083;-81
2022/10/12 01:09:39;;;;;;;2.92;1.73;;;5.30;99.90;;;;;;5050653;28;20036;-81
2022/10/12 01:12:07;;;;;;;5.82;2.40;;;5.20;99.90;;;;;;5019024;28;20395;-81
2022/10/12 01:14:33;;;;;;;5.85;2.10;;;5.30;99.90;;;;;;5052011;28;20045;-81
2022/10/12 01:17:21;;;;;;;5.57;1.98;;;5.90;99.90;;;;;;5051668;28;20094;-81
2022/10/12 01:20:14;;;;;;;2.92;1.60;;;5.30;99.90;;;;;;5051939;28;20056;-81
2022/10/12 01:22:46;;;;;;;4.35;1.52;;;5.30;99.90;;;;;;5051824;28;20037;-81
2022/10/12 01:25:24;;;;;;;4.32;1.88;;;5.30;99.90;;;;;;5051858;28;20044;-81
2022/10/12 01:27:54;;;;;;;3.55;1.73;;;5.30;99.90;;;;;;5051323;28;20047;-81
2022/10/12 01:30:30;;;;;;;2.33;1.38;;;5.30;99.90;;;;;;5051868;28;20045;-81
2022/10/12 01:33:17;;;;;;;2.53;1.38;;;5.30;99.90;;;;;;5052080;28;20083;-82
2022/10/12 01:35:49;;;;;;;;;;;5.40;99.90;;;;;;5052654;28;20391;-83
2022/10/12 01:38:30;;;;;;;4.47;1.80;;;5.40;99.90;;;;;;5051621;28;19984;-83
2022/10/12 01:41:06;;;;;;;2.67;1.65;;;5.40;99.90;;;;;;5035200;28;20074;-84
2022/10/12 01:43:35;;;;;;;2.63;1.52;;;5.50;99.90;;;;;;5052032;28;20044;-84
2022/10/12 01:46:11;;;;;;;5.22;1.70;;;5.70;99.90;;;;;;5052015;28;20056;-84
2022/10/12 01:48:37;;;;;;;3.30;1.60;;;5.70;99.90;;;;;;5050713;28;20037;-83
2022/10/12 01:51:03;;;;;;;3.97;1.55;;;5.70;99.90;;;;;;5050220;28;20478;-81
2022/10/12 01:53:43;;;;;;;4.25;1.85;;;5.90;99.90;;;;;;5051331;28;20052;-81
2022/10/12 01:56:26;;;;;;;3.53;1.80;;;5.80;99.90;;;;;;5088552;28;20041;-81
2022/10/12 01:59:14;;;;;;;4.63;1.80;;;6.10;99.90;;;;;;5054838;28;20048;-81
2022/10/12 02:02:11;;;;;;;6.78;2.08;;;5.90;99.90;;;;;;5055438;28;20037;-81
2022/10/12 02:04:48;;;;;;;2.35;1.50;;;5.90;99.90;;;;;;5035573;28;20396;-81
2022/10/12 02:07:31;;;;;;;3.50;1.73;;;5.90;99.90;;;;;;5055019;28;20546;-81
2022/10/12 02:10:01;;;;;;;4.20;1.60;;;6.00;99.90;;;;;;5054781;28;20037;-81
2022/10/12 02:12:28;;;;;;;4.30;1.90;;;6.40;99.90;;;;;;5054901;28;20052;-81
2022/10/12 02:14:59;;;;;;;4.13;1.80;;;6.00;99.90;;;;;;5038645;28;20048;-81
2022/10/12 02:17:25;;;;;;;2.38;1.45;;;6.00;99.90;;;;;;5054915;28;20048;-81
2022/10/12 02:19:56;;;;;;;3.00;1.65;;;6.00;99.90;;;;;;5038077;28;20041;-81
2022/10/12 02:22:33;;;;;;;5.50;2.17;;;6.00;99.90;;;;;;5038166;28;20080;-81
2022/10/12 02:25:05;;;;;;;3.42;1.85;;;5.90;99.90;;;;;;5054554;28;20487;-80
2022/10/12 02:27:36;;;;;;;2.33;1.45;;;5.90;99.90;;;;;;5054612;28;20114;-80
2022/10/12 02:30:02;;;;;;;5.95;1.98;;;7.10;99.90;;;;;;5038017;28;20048;-81
2022/10/12 02:32:38;;;;;;;3.17;2.45;;;5.90;99.90;;;;;;5037962;28;20037;-80
2022/10/12 02:35:14;;;;;;;4.18;1.92;;;5.80;99.90;;;;;;5037946;28;20045;-80
2022/10/12 02:37:48;;;;;;;4.15;1.50;;;5.80;99.90;;;;;;5054486;28;20041;-80
2022/10/12 02:40:29;;;;;;;5.30;1.73;;;5.80;99.90;;;;;;5043579;28;20149;-81
2022/10/12 02:43:07;;;;;;;2.67;1.50;;;5.80;99.90;;;;;;5037783;28;20040;-81
2022/10/12 02:45:33;;;;;;;4.40;1.38;;;5.70;99.90;;;;;;5054604;28;20048;-81
2022/10/12 02:48:00;;;;;;;3.55;1.80;;;5.70;99.90;;;;;;5054207;28;20041;-81
2022/10/12 02:50:27;;;;;;;4.28;1.50;;;5.70;99.90;;;;;;5021356;28;20463;-81
2022/10/12 02:52:53;;;;;;;1.52;1.13;;;5.60;99.90;;;;;;5037754;28;20091;-81
2022/10/12 02:55:19;;;;;;;2.63;1.90;;;5.60;99.90;;;;;;5054226;28;20048;-81
2022/10/12 02:57:44;;;;;;;2.67;1.38;;;5.60;99.90;;;;;;5071062;28;20045;-83
2022/10/12 03:00:11;;;;;;;3.17;1.60;;;5.50;99.90;;;;;;5053803;28;20545;-83
2022/10/12 03:02:37;;;;;;;3.03;1.60;;;5.50;99.90;;;;;;5037382;28;20065;-83
2022/10/12 03:05:03;;;;;;;2.38;1.55;;;5.50;99.90;;;;;;5037391;28;20075;-83
2022/10/12 03:07:28;;;;;;;2.60;2.15;;;5.50;99.90;;;;;;5036288;28;20044;-83
2022/10/12 03:09:54;;;;;;;2.72;1.60;;;5.50;99.90;;;;;;5053667;28;20033;-83
2022/10/12 03:12:20;;;;;;;1.95;1.45;;;5.60;99.90;;;;;;5020880;28;20091;-83
2022/10/12 03:14:45;;;;;;;4.00;1.48;;;5.50;99.90;;;;;;5037627;28;20044;-81
2022/10/12 03:17:11;;;;;;;3.35;1.50;;;5.50;99.90;;;;;;5053771;28;20076;-81
2022/10/12 03:19:38;;;;;;;4.80;1.58;;;5.50;99.90;;;;;;5020970;28;20044;-81
2022/10/12 03:22:04;;;;;;;3.25;1.45;;;5.60;99.90;;;;;;5070065;28;20048;-81
2022/10/12 03:24:30;;;;;;;1.55;1.20;;;5.60;99.90;;;;;;5020751;28;20048;-81
2022/10/12 03:26:57;;;;;;;3.17;1.33;;;5.90;99.90;;;;;;5036982;28;20060;-81
2022/10/12 03:29:23;;;;;;;2.15;1.38;;;5.60;99.90;;;;;;5053346;28;20037;-81
2022/10/12 03:31:48;;;;;;;2.65;1.70;;;5.60;99.90;;;;;;5053515;28;20086;-83
2022/10/12 03:34:14;;;;;;;3.08;1.90;;;5.60;99.90;;;;;;5053288;28;20178;-83
2022/10/12 03:36:39;;;;;;;2.88;1.60;;;5.70;99.90;;;;;;5053491;28;20048;-83
2022/10/12 03:39:05;;;;;;;2.30;1.40;;;5.70;99.90;;;;;;5036944;28;20036;-83
2022/10/12 03:41:31;;;;;;;2.78;1.98;;;5.70;99.90;;;;;;5053532;28;20049;-83
2022/10/12 03:43:57;;;;;;;4.28;1.80;;;5.80;99.90;;;;;;5034307;28;20498;-83
2022/10/12 03:46:23;;;;;;;3.47;1.70;;;5.80;99.90;;;;;;5053289;28;20059;-82
2022/10/12 03:48:49;;;;;;;3.50;1.40;;;5.80;99.90;;;;;;5036502;28;20115;-82
2022/10/12 03:51:14;;;;;;;3.70;1.58;;;5.80;99.90;;;;;;5069982;28;20037;-81
2022/10/12 03:53:40;;;;;;;6.38;2.17;;;5.80;99.90;;;;;;5052909;28;20412;-81
2022/10/12 03:56:06;;;;;;;4.30;1.88;;;5.80;99.90;;;;;;5053156;28;20043;-80
2022/10/12 03:58:32;;;;;;;2.22;1.38;;;5.80;99.90;;;;;;5036803;28;20383;-81
2022/10/12 04:00:57;;;;;;;4.13;1.83;;;5.80;99.90;;;;;;5052847;28;20041;-81
2022/10/12 04:03:23;;;;;;;4.57;2.72;;;6.30;99.90;;;;;;5052702;28;20119;-81
2022/10/12 04:05:53;;;;;;;3.35;2.10;;;6.60;99.90;;;;;;5053094;28;20044;-81
2022/10/12 04:08:19;;;;;;;6.30;2.67;;;6.00;99.90;;;;;;5052788;28;20064;-81
2022/10/12 04:10:45;;;;;;;3.95;2.25;;;5.80;99.90;;;;;;5052773;28;20029;-81
2022/10/12 04:13:10;;;;;;;4.57;2.15;;;5.80;99.90;;;;;;5035843;28;20503;-81
2022/10/12 04:15:36;;;;;;;9.10;3.17;;;5.80;99.90;;;;;;5052680;28;20053;-81
2022/10/12 04:18:02;;;;;;;6.75;2.20;;;5.80;99.90;;;;;;5019323;28;20041;-81
2022/10/12 04:20:28;;;;;;;5.57;2.10;;;5.80;99.90;;;;;;5052772;28;20036;-83
2022/10/12 04:22:53;;;;;;;5.68;2.30;;;6.40;99.90;;;;;;5052720;28;20072;-83
2022/10/12 04:25:19;;;;;;;5.60;2.60;;;5.80;99.90;;;;;;5052760;28;20134;-83
2022/10/12 04:27:45;;;;;;;5.53;2.40;;;5.80;99.90;;;;;;5036135;28;20052;-83
2022/10/12 04:30:11;;;;;;;4.45;1.65;;;5.80;99.90;;;;;;5019741;28;20084;-83
2022/10/12 04:32:37;;;;;;;5.72;2.20;;;5.80;99.90;;;;;;5019564;28;20037;-83
2022/10/12 04:35:02;;;;;;;7.88;2.80;;;5.80;99.90;;;;;;5036469;28;20037;-83
2022/10/12 04:37:28;;;;;;;7.43;3.13;;;5.70;99.90;;;;;;5052511;28;20498;-81
2022/10/12 04:39:54;;;;;;;6.60;2.55;;;5.70;99.90;;;;;;5019317;28;20076;-81
2022/10/12 04:42:20;;;;;;;8.50;4.32;;;5.70;99.90;;;;;;5052052;28;20045;-81
2022/10/12 04:44:46;;;;;;;10.00;3.70;;;5.70;99.90;;;;;;5052011;28;20045;-81
2022/10/12 04:47:12;;;;;;;9.45;3.38;;;5.80;99.90;;;;;;5035621;28;20308;-81
2022/10/12 04:49:37;;;;;;;8.07;3.47;;;5.70;99.90;;;;;;5035388;28;20446;-81
2022/10/12 04:52:03;;;;;;;11.18;4.53;;;5.70;99.90;;;;;;5045142;28;20042;-81
2022/10/12 04:54:31;;;;;;;10.90;3.78;;;5.70;99.90;;;;;;4999931;28;20049;-83
2022/10/12 04:56:57;;;;;;;9.23;3.58;;;5.70;99.90;;;;;;5034183;28;20036;-83
2022/10/12 04:59:23;;;;;;;10.30;4.43;;;5.70;99.90;;;;;;5052127;28;20514;-83
2022/10/12 05:01:49;;;;;;;15.48;5.05;;;5.70;99.90;;;;;;5052459;28;20072;-84
2022/10/12 05:04:15;;;;;;;11.13;4.63;;;6.90;99.90;;;;;;5051941;28;20048;-84
2022/10/12 05:06:41;;;;;;;12.80;4.47;;;6.20;99.90;;;;;;5034792;28;20045;-83
2022/10/12 05:09:06;;;;;;;10.45;4.05;;;6.50;99.90;;;;;;5035332;28;20082;-83
2022/10/12 05:11:32;;;;;;;6.95;2.90;;;6.90;99.90;;;;;;5051408;28;20128;-81
2022/10/12 05:13:58;;;;;;;10.30;4.10;;;5.90;99.90;;;;;;5051450;28;20403;-81
2022/10/12 05:16:24;;;;;;;9.48;3.75;;;5.90;99.90;;;;;;5051539;28;20494;-81
2022/10/12 05:18:49;;;;;;;10.15;2.50;;;5.90;99.90;;;;;;5051779;28;20041;-81
2022/10/12 05:21:15;;;;;;;5.50;2.60;;;5.90;99.90;;;;;;5051738;28;20041;-81
2022/10/12 05:23:41;;;;;;;6.20;2.40;;;5.90;99.90;;;;;;5051774;28;20175;-81
2022/10/12 05:26:07;;;;;;;6.97;3.20;;;6.60;99.90;;;;;;5051620;28;20182;-81
2022/10/12 05:28:32;;;;;;;6.35;2.85;;;5.90;99.90;;;;;;5048375;28;20037;-80
2022/10/12 05:30:58;;;;;;;6.47;2.90;;;6.40;99.90;;;;;;5038676;28;20122;-80
2022/10/12 05:33:24;;;;;;;10.55;3.25;;;6.30;99.90;;;;;;5071876;28;20040;-79
2022/10/12 05:35:50;;;;;;;5.72;2.72;;;6.60;99.90;;;;;;5022473;28;20124;-80
2022/10/12 05:38:15;;;;;;;5.50;2.72;;;6.00;99.90;;;;;;5055476;28;20040;-80
2022/10/12 05:40:42;;;;;;;5.63;2.70;;;5.60;99.90;;;;;;5055931;28;20048;-85
2022/10/12 05:43:08;;;;;;;8.55;2.85;;;5.70;99.90;;;;;;5055937;28;20554;-84
2022/10/12 05:45:33;;;;;;;5.38;2.80;;;5.20;99.90;;;;;;5022399;28;20477;-84
2022/10/12 05:47:59;;;;;;;6.70;3.55;;;6.50;99.90;;;;;;5039634;28;20049;-85
2022/10/12 05:50:25;;;;;;;6.22;3.53;;;5.80;99.90;;;;;;5032995;28;20453;-84
2022/10/12 05:52:51;;;;;;;9.27;3.75;;;5.50;99.90;;;;;;5042031;28;20045;-85
2022/10/12 05:55:16;;;;;;;7.93;3.55;;;5.50;99.90;;;;;;5035767;28;20033;-82
2022/10/12 05:57:42;;;;;;;8.52;4.03;;;6.00;99.90;;;;;;5036373;28;20120;-82
2022/10/12 06:00:09;;;;;;;7.30;3.33;;;5.60;99.90;;;;;;5055265;28;20044;-82
2022/10/12 06:02:35;;;;;;;8.23;3.70;;;5.50;99.90;;;;;;5038250;28;20073;-82
2022/10/12 06:05:00;;;;;;;6.22;3.05;;;6.40;99.90;;;;;;5054909;28;20079;-82
2022/10/12 06:07:26;;;;;;;7.05;3.17;;;6.30;99.90;;;;;;5038458;28;20124;-82
2022/10/12 06:09:52;;;;;;;8.82;3.28;;;6.20;99.90;;;;;;5054037;28;20068;-82
2022/10/12 06:12:19;;;;;;;6.45;2.70;;;5.50;99.90;;;;;;5038736;28;20041;-82
2022/10/12 06:14:44;;;;;;;3.95;2.30;;;5.40;99.90;;;;;;5055841;28;20082;-82
2022/10/12 06:17:10;;;;;;;4.97;2.60;;;5.20;99.90;;;;;;5038806;28;20049;-82
2022/10/12 06:19:36;;;;;;;5.85;2.72;;;5.50;99.90;;;;;;5054564;28;20532;-82
2022/10/12 06:22:02;;;;;;;7.20;2.70;;;5.90;99.90;;;;;;5038399;28;20045;-82
2022/10/12 06:24:28;;;;;;;7.80;2.70;;;5.10;99.90;;;;;;5038550;28;20040;-82
2022/10/12 06:26:53;;;;;;;4.15;2.33;;;5.50;99.90;;;;;;5055812;28;20104;-82
2022/10/12 06:29:22;;;;;;;5.10;2.28;;;5.30;99.90;;;;;;5055073;28;20041;-82
2022/10/12 06:31:48;;;;;;;5.75;2.85;;;5.60;99.90;;;;;;5054538;28;20112;-82
2022/10/12 06:34:14;;;;;;;5.90;2.47;;;5.50;99.90;;;;;;5054786;28;20067;-82
2022/10/12 06:36:40;;;;;;;6.47;2.45;;;5.40;99.90;;;;;;5038126;28;20383;-82
2022/10/12 06:39:06;;;;;;;5.32;2.55;;;5.50;99.90;;;;;;5038015;28;20095;-82
2022/10/12 06:41:31;;;;;;;4.93;2.60;;;6.30;99.90;;;;;;5043542;28;20404;-83
2022/10/12 06:43:58;;;;;;;5.10;2.90;;;5.60;99.90;;;;;;5054272;28;20079;-82
2022/10/12 06:46:23;;;;;;;4.55;2.65;;;6.20;99.90;;;;;;5054118;28;20044;-83
2022/10/12 06:48:50;;;;;;;7.85;4.22;;;6.50;99.90;;;;;;5033546;28;20045;-83
2022/10/12 06:51:16;;;;;;;6.40;2.58;;;7.80;99.90;;;;;;5037632;28;20071;-83
2022/10/12 06:53:42;;;;;;;7.32;2.83;;;8.70;99.90;;;;;;5021450;28;20051;-83
2022/10/12 06:56:08;;;;;;;8.35;3.45;;;8.90;99.90;;;;;;5037885;28;20044;-83
2022/10/12 06:58:35;;;;;;;8.10;3.17;;;9.70;99.90;;;;;;5053586;28;20029;-83
2022/10/12 07:01:02;;;;;;;11.15;3.30;;;10.70;99.90;;;;;;5031128;28;20066;-83
2022/10/12 07:03:28;;;;;;;8.23;2.83;;;11.50;99.90;;;;;;5052876;28;20063;-84
2022/10/12 07:05:54;;;;;;;6.97;2.90;;;12.40;99.90;;;;;;5037306;28;20041;-84
2022/10/12 07:08:19;;;;;;;7.63;3.58;;;13.20;99.90;;;;;;5048384;28;20417;-87
2022/10/12 07:10:45;;;;;;;7.20;2.75;;;13.80;99.90;;;;;;4999677;28;20039;-87
2022/10/12 07:13:11;;;;;;;7.03;2.83;;;14.60;99.90;;;;;;5053122;28;20053;-87
2022/10/12 07:15:37;;;;;;;13.45;2.78;;;15.00;99.90;;;;;;5007064;28;20042;-87
2022/10/12 07:18:05;;;;;;;5.78;2.50;;;15.10;99.90;;;;;;5033202;28;20070;-87
2022/10/12 07:20:30;;;;;;;7.15;2.90;;;15.10;99.90;;;;;;5053932;28;20127;-87
2022/10/12 07:22:56;;;;;;;8.70;2.95;;;15.10;99.90;;;;;;5051400;28;20033;-85
2022/10/12 07:25:22;;;;;;;5.05;2.47;;;14.80;99.90;;;;;;5042022;28;20080;-84
2022/10/12 07:27:48;;;;;;;10.20;2.50;;;14.50;99.90;;;;;;5053725;28;20496;-84
2022/10/12 07:30:14;;;;;;;6.80;2.53;;;14.00;99.90;;;;;;5037191;28;20044;-84
2022/10/12 07:32:41;;;;;;;3.17;1.88;;;13.60;99.90;;;;;;5036808;28;20037;-83
2022/10/12 07:35:07;;;;;;;7.30;2.30;;;13.50;99.90;;;;;;5053870;28;20039;-85
2022/10/12 07:37:32;;;;;;;5.53;2.50;;;14.30;99.90;;;;;;5045453;28;20094;-83
2022/10/12 07:39:58;;;;;;;6.68;2.65;;;15.30;99.90;;;;;;5037063;28;20037;-82
2022/10/12 07:42:24;;;;;;;8.25;3.60;;;16.50;99.90;;;;;;5065421;28;20044;-82
2022/10/12 07:44:50;;;;;;;5.80;2.58;;;17.30;99.90;;;;;;5073436;28;20044;-82
2022/10/12 07:47:16;;;;;;;4.72;1.88;;;16.90;98.30;;;;;;5039688;28;20117;-82
2022/10/12 07:49:42;;;;;;;5.72;1.90;;;16.70;99.90;;;;;;5053777;28;20386;-82
2022/10/12 07:52:08;;;;;;;5.13;2.08;;;16.40;99.90;;;;;;5035818;28;20132;-81
2022/10/12 07:54:33;;;;;;;4.93;2.40;;;16.30;99.90;;;;;;5037070;28;20068;-81
2022/10/12 07:56:59;;;;;;;3.65;1.65;;;16.40;99.90;;;;;;5046147;28;20047;-85
2022/10/12 07:59:25;;;;;;;3.90;1.67;;;16.60;99.90;;;;;;5024135;28;20041;-85
2022/10/12 08:01:50;;;;;;;7.78;2.22;;;16.60;99.90;;;;;;5026841;28;20081;-86
2022/10/12 08:04:16;;;;;;;7.05;2.15;;;17.30;99.90;;;;;;5049309;28;20037;-86
2022/10/12 08:06:42;;;;;;;7.35;1.98;;;18.40;99.30;;;;;;5042029;28;20135;-85
2022/10/12 08:09:08;;;;;;;5.00;2.33;;;19.00;96.80;;;;;;5052564;28;20075;-85
2022/10/12 08:11:40;;;;;;;4.53;1.90;;;18.90;96.10;;;;;;5036117;28;20077;-85
2022/10/12 08:14:13;;;;;;;4.70;2.17;;;18.90;95.00;;;;;;5035912;28;20182;-85
2022/10/12 08:16:40;;;;;;;8.07;2.33;;;18.80;94.90;;;;;;5054432;28;20091;-85
2022/10/12 08:19:05;;;;;;;5.40;2.28;;;18.40;95.10;;;;;;5056661;28;20056;-86
2022/10/12 08:21:31;;;;;;;6.28;1.80;;;17.80;95.40;;;;;;5045155;28;20049;-86
2022/10/12 08:23:57;;;;;;;3.88;2.03;;;17.30;96.30;;;;;;5018678;28;20498;-86
2022/10/12 08:26:23;;;;;;;4.05;2.17;;;17.50;98.50;;;;;;5032723;28;20076;-85
2022/10/12 08:28:48;;;;;;;5.15;2.17;;;18.30;97.40;;;;;;5020037;28;20539;-85
2022/10/12 08:31:16;;;;;;;10.07;2.05;;;19.30;96.00;;;;;;5052827;28;20048;-85
2022/10/12 08:33:42;;;;;;;5.15;1.75;;;20.30;94.00;;;;;;5052840;28;20119;-85
2022/10/12 08:36:10;;;;;;;4.45;1.60;;;21.20;92.50;;;;;;5035955;28;20098;-86
2022/10/12 08:38:39;;;;;;;6.55;1.92;;;21.90;90.70;;;;;;5035847;28;20098;-86
2022/10/12 08:41:23;;;;;;;4.07;1.80;;;22.20;89.10;;;;;;5035783;28;20063;-86
2022/10/12 08:44:13;;;;;;;3.47;1.83;;;23.10;87.80;;;;;;5052299;28;20095;-86
2022/10/12 08:46:39;;;;;;;5.07;2.15;;;23.90;87.10;;;;;;5052015;28;20036;-86
2022/10/12 08:49:18;;;;;;;5.22;1.95;;;24.50;85.30;;;;;;5052437;28;20521;-85
2022/10/12 08:51:57;;;;;;;9.05;2.67;;;25.00;80.50;;;;;;5035348;28;20048;-86
2022/10/12 08:54:28;;;;;;;5.10;2.00;;;25.00;81.20;;;;;;5052348;28;20037;-85
2022/10/12 08:56:54;;;;;;;9.20;2.13;;;24.80;78.90;;;;;;5052635;28;20409;-86
2022/10/12 08:59:20;;;;;;;5.43;1.92;;;24.50;83.20;;;;;;5052293;28;20075;-86
2022/10/12 09:02:20;;;;;;;5.93;2.05;;;24.40;77.30;;;;;;5051603;28;20037;-86
2022/10/12 09:05:13;;;;;;;6.75;2.38;;;24.40;80.80;;;;;;5034670;28;20037;-83
2022/10/12 09:07:54;;;;;;;5.05;1.83;;;24.40;79.10;;;;;;5051794;28;20041;-83
2022/10/12 09:10:23;;;;;;;2.72;1.50;;;24.80;79.40;;;;;;5052063;28;20613;-83
2022/10/12 09:13:07;;;;;;;4.78;1.48;;;25.10;77.90;;;;;;5051387;28;20057;-83
2022/10/12 09:15:42;;;;;;;3.80;1.60;;;25.60;78.20;;;;;;5035598;28;20045;-83
2022/10/12 09:18:18;;;;;;;3.80;1.63;;;26.10;75.10;;;;;;5052067;28;20037;-83
2022/10/12 09:20:50;;;;;;;3.88;1.40;;;26.50;74.70;;;;;;5051838;28;20041;-83
2022/10/12 09:23:25;;;;;;;4.03;0.93;;;26.60;75.60;;;;;;5034980;28;20052;-83
2022/10/12 09:26:01;;;;;;;5.63;1.65;;;26.70;72.00;;;;;;5018761;28;20047;-83
2022/10/12 09:28:37;;;;;;;4.10;1.17;;;26.70;73.60;;;;;;5051763;28;20056;-82
2022/10/12 09:31:25;;;;;;;2.00;0.93;;;26.70;72.50;;;;;;5051933;28;20383;-83
2022/10/12 09:33:54;;;;;;;5.03;1.40;;;27.20;73.80;;;;;;5034917;28;20098;-83
2022/10/12 09:36:23;;;;;;;3.38;1.20;;;27.20;72.40;;;;;;5018728;28;20068;-83
2022/10/12 09:38:50;;;;;;;5.97;1.85;;;27.50;70.70;;;;;;5051797;28;20037;-84
2022/10/12 09:41:21;;;;;;;3.75;1.10;;;27.10;70.60;;;;;;5051949;28;20051;-84
2022/10/12 09:43:56;;;;;;;3.78;1.55;;;27.50;73.50;;;;;;5051792;28;20040;-84
2022/10/12 09:46:47;;;;;;;7.53;1.65;;;27.70;71.20;;;;;;5051268;28;20080;-84
2022/10/12 09:49:12;;;;;;;5.25;1.63;;;28.20;71.00;;;;;;5051131;28;20132;-84
2022/10/12 09:51:38;;;;;;;4.38;1.27;;;28.30;70.70;;;;;;5051633;28;20124;-84
2022/10/12 09:54:05;;;;;;;2.72;1.38;;;28.70;69.80;;;;;;5051800;28;20091;-84
2022/10/12 09:56:45;;;;;;;3.05;1.52;;;28.70;68.60;;;;;;5051808;28;20457;-84
2022/10/12 09:59:35;;;;;;;4.55;1.60;;;28.00;68.90;;;;;;5085115;28;20040;-84
2022/10/12 10:02:07;;;;;;;3.97;1.60;;;28.30;69.50;;;;;;5051788;28;20457;-84
2022/10/12 10:04:33;;;;;;;3.78;1.25;;;28.60;68.50;;;;;;5052044;28;20059;-84
2022/10/12 10:07:32;;;;;;;3.03;1.65;;;28.30;68.70;;;;;;5051348;28;20056;-85
2022/10/12 10:10:18;;;;;;;4.53;1.65;;;28.60;67.40;;;;;;5050277;28;20120;-83
2022/10/12 10:13:00;;;;;;;2.33;0.90;;;29.10;68.10;;;;;;5034804;28;20045;-83
2022/10/12 10:15:27;;;;;;;1.75;1.10;;;29.40;67.90;;;;;;5052525;28;20041;-83
2022/10/12 10:17:58;;;;;;;9.43;2.25;;;30.20;66.70;;;;;;5054971;28;20041;-83
2022/10/12 10:20:37;;;;;;;3.13;1.17;;;29.90;66.50;;;;;;5055033;28;20110;-83
2022/10/12 10:23:04;;;;;;;4.82;1.30;;;29.80;64.50;;;;;;5038184;28;20268;-84
2022/10/12 10:25:30;;;;;;;5.75;2.00;;;29.50;65.20;;;;;;5054887;28;20045;-83
2022/10/12 10:28:24;;;;;;;3.70;1.42;;;29.30;65.10;;;;;;5054947;28;20048;-83
2022/10/12 10:31:26;;;;;;;5.22;1.65;;;29.50;67.40;;;;;;5049656;28;20067;-84
2022/10/12 10:34:16;;;;;;;5.65;1.33;;;29.60;65.60;;;;;;5056078;28;20044;-83
2022/10/12 10:37:04;;;;;;;6.03;1.30;;;29.50;64.10;;;;;;5055908;28;20060;-83
2022/10/12 10:39:52;;;;;;;6.72;1.83;;;29.40;65.50;;;;;;5055571;28;20099;-83
2022/10/12 10:42:36;;;;;;;4.90;2.15;;;28.20;64.70;;;;;;5055768;28;20490;-83
2022/10/12 10:45:42;;;;;;;2.88;1.10;;;27.90;64.70;;;;;;5055037;28;20051;-84
2022/10/12 10:48:22;;;;;;;4.78;1.17;;;;;;;;;;5054374;28;20135;-84
2022/10/12 10:51:06;;;;;;;4.38;1.20;;;;;;;;;;5037310;28;20075;-84
2022/10/12 10:53:42;;;;;;;4.50;1.45;;;;;;;;;;5054638;28;20041;-84
2022/10/12 10:56:10;;;;;;;2.28;0.77;;;;;;;;;;5054191;28;20554;-84
2022/10/12 10:58:51;;;;;;;9.68;1.75;;;;;;;;;;5034535;28;20110;-84
2022/10/12 11:01:20;;;;;;;3.25;1.30;;;;;;;;;;5043136;28;20399;-83
2022/10/12 11:03:56;;;;;;;4.15;1.25;;;;;;;;;;5054082;28;20072;-83
2022/10/12 11:06:42;;;;;;;3.60;1.20;;;;;;;;;;5054194;28;20430;-83
2022/10/12 11:09:16;;;;;;;5.30;2.35;;;;;;;;;;5054115;28;20041;-83
2022/10/12 11:11:43;;;;;;;3.58;1.50;;;;;;;;;;5053624;28;20510;-83
2022/10/12 11:14:17;;;;;;;3.03;1.10;;;;;;;;;;5053704;28;20075;-83
2022/10/12 11:17:03;;;;;;;4.97;1.98;;;;;;;;;;5037259;28;20044;-84
2022/10/12 11:19:29;;;;;;;;;;;;;;;;;;5054523;28;20048;-85
2022/10/12 11:21:59;;;;;;;3.45;1.38;;;29.30;62.10;;;;;;5053691;28;19916;-84
2022/10/12 11:24:46;;;;;;;6.80;1.80;;;28.80;64.50;;;;;;5037441;28;20041;-84
2022/10/12 11:27:19;;;;;;;2.03;1.08;;;28.60;64.10;;;;;;5052854;28;20406;-84
2022/10/12 11:29:45;;;;;;;4.72;1.88;;;27.50;65.10;;;;;;5037103;28;20045;-84
2022/10/12 11:32:26;;;;;;;5.03;1.85;;;28.00;65.30;;;;;;5036662;28;20052;-84
2022/10/12 11:34:56;;;;;;;2.70;1.50;;;26.70;65.90;;;;;;5053524;28;20044;-85
2022/10/12 11:37:33;;;;;;;6.38;1.83;;;26.10;67.90;;;;;;5053607;28;20072;-86
2022/10/12 11:40:01;;;;;;;7.15;1.45;;;26.20;67.20;;;;;;5053596;28;20083;-86
2022/10/12 11:42:32;;;;;;;3.20;0.95;;;25.80;68.10;;;;;;5053199;28;20495;-85
2022/10/12 11:45:01;;;;;;;7.38;1.60;;;25.10;67.40;;;;;;5053370;28;20041;-85
2022/10/12 11:47:26;;;;;;;5.47;2.05;;;23.40;70.00;;;;;;5036683;28;20403;-85
2022/10/12 11:50:20;;;;;;;6.20;1.55;;;22.10;71.90;;;;;;5053353;28;20044;-85
2022/10/12 11:52:48;;;;;;;3.28;1.67;;;21.40;74.50;;;;;;5036070;28;20033;-85
2022/10/12 11:55:23;;;;;;;7.05;1.58;;;20.70;76.60;;;;;;5053816;28;20498;-85
2022/10/12 11:57:50;;;;;;;4.55;1.27;;;20.00;77.40;;;;;;5037035;28;20044;-85
2022/10/12 12:00:24;;;;;;;6.45;1.90;;;19.80;78.20;;;;;;5036868;28;20048;-85
2022/10/12 12:02:55;;;;;;;6.63;1.60;;;19.60;78.00;;;;;;5053300;28;20430;-85
2022/10/12 12:05:21;;;;;;;5.65;1.95;;;19.30;78.50;;;;;;5053001;28;20029;-85
2022/10/12 12:07:55;;;;;;;4.40;1.35;;;19.00;79.60;;;;;;5069371;28;20124;-85
2022/10/12 12:10:29;;;;;;;7.03;2.10;;;18.90;79.40;;;;;;5052973;28;20063;-85
2022/10/12 12:13:11;;;;;;;4.55;1.42;;;18.40;81.00;;;;;;5052725;28;20376;-85
2022/10/12 12:15:46;;;;;;;2.45;1.45;;;18.10;80.80;;;;;;5052714;28;20049;-85
2022/10/12 12:18:13;;;;;;;6.10;1.15;;;17.70;82.60;;;;;;5052591;28;20106;-85
2022/10/12 12:20:42;;;;;;;5.68;1.90;;;17.50;82.90;;;;;;5052708;28;20483;-84
2022/10/12 12:23:49;;;;;;;3.70;1.60;;;17.00;84.30;;;;;;5036301;28;20045;-82
2022/10/12 12:26:16;;;;;;;3.03;1.10;;;17.00;88.00;;;;;;5046925;28;20045;-82
2022/10/12 12:28:53;;;;;;;5.35;1.38;;;16.90;86.00;;;;;;5096109;22;20064;-82
2022/10/12 12:31:21;;;;;;;3.53;1.58;;;16.90;86.20;;;;;;5092414;28;20067;-82
2022/10/12 12:33:59;;;;;;;6.53;1.88;;;16.80;86.20;;;;;;5076147;28;20386;-82
2022/10/12 12:36:32;;;;;;;2.92;1.55;;;17.10;86.50;;;;;;5075606;28;20059;-82
2022/10/12 12:38:58;;;;;;;4.47;1.63;;;17.60;85.20;;;;;;5075683;28;20036;-82
2022/10/12 12:41:43;;;;;;;7.30;1.70;;;17.80;85.20;;;;;;5092502;28;20401;-85
2022/10/12 12:44:41;;;;;;;5.95;1.35;;;17.90;84.80;;;;;;5091861;28;20039;-85
2022/10/12 12:47:10;;;;;;;3.53;1.77;;;18.00;83.40;;;;;;5075482;28;20066;-85
2022/10/12 12:49:44;;;;;;;3.95;1.55;;;18.00;83.40;;;;;;5071397;28;20481;-85
2022/10/12 12:52:30;;;;;;;5.28;1.70;;;17.90;83.20;;;;;;5092190;28;20067;-85
2022/10/12 12:55:15;;;;;;;2.65;1.00;;;18.10;84.90;;;;;;5092246;28;20482;-85
2022/10/12 12:58:05;;;;;;;2.58;1.48;;;18.50;83.10;;;;;;5075146;28;20401;-82
2022/10/12 13:00:46;;;;;;;3.80;1.20;;;18.70;80.90;;;;;;5092298;28;20040;-83
2022/10/12 13:03:29;;;;;;;2.70;1.10;;;19.10;80.90;;;;;;5075432;28;20126;-83
2022/10/12 13:06:19;;;;;;;1.42;0.63;;;19.40;80.90;;;;;;5075110;28;20046;-82
2022/10/12 13:09:19;;;;;;;11.07;1.70;;;19.80;80.80;;;;;;5079832;28;20044;-83
2022/10/12 13:12:03;;;;;;;4.38;1.30;;;20.20;78.80;;;;;;5080596;28;20489;-83
2022/10/12 13:14:41;;;;;;;6.38;1.20;;;20.30;77.90;;;;;;5072683;28;20116;-82